createdAt,value
2022-09-07T00:00:15.552Z,4.23
2022-09-07T00:02:42.426Z,5.00
2022-09-07T00:05:09.550Z,9.70
2022-09-07T00:07:36.445Z,4.73
2022-09-07T00:10:03.496Z,9.07
2022-09-07T00:12:30.375Z,8.43
2022-09-07T00:14:57.394Z,5.93
2022-09-07T00:17:24.280Z,3.53
2022-09-07T00:19:51.309Z,8.13
2022-09-07T00:22:18.214Z,4.33
2022-09-07T00:24:45.118Z,3.33
2022-09-07T00:27:11.989Z,3.43
2022-09-07T00:29:39.093Z,2.83
2022-09-07T00:32:05.917Z,3.57
2022-09-07T00:34:33.053Z,3.93
2022-09-07T00:37:00.325Z,3.53
2022-09-07T00:39:27.383Z,3.40
2022-09-07T00:41:54.416Z,4.23
2022-09-07T00:44:39.810Z,7.10
2022-09-07T00:47:07.867Z,4.43
2022-09-07T00:49:35.419Z,5.03
2022-09-07T00:52:03.986Z,3.83
2022-09-07T00:54:37.115Z,4.77
2022-09-07T00:57:04.470Z,3.50
2022-09-07T00:59:34.551Z,5.57
2022-09-07T01:02:01.667Z,3.80
2022-09-07T01:04:30.345Z,5.07
2022-09-07T01:06:57.355Z,3.17
2022-09-07T01:09:25.816Z,4.90
2022-09-07T01:11:54.048Z,3.50
2022-09-07T01:14:25.465Z,4.97
2022-09-07T01:16:52.383Z,4.30
2022-09-07T01:19:36.342Z,7.83
2022-09-07T01:22:41.599Z,4.10
2022-09-07T01:25:19.167Z,4.37
2022-09-07T01:28:09.350Z,4.60
2022-09-07T01:30:37.784Z,5.37
2022-09-07T01:33:15.969Z,3.57
2022-09-07T01:35:45.914Z,4.67
2022-09-07T01:38:15.639Z,4.40
2022-09-07T01:41:18.639Z,3.93
2022-09-07T01:43:48.583Z,4.97
2022-09-07T01:46:21.773Z,4.33
2022-09-07T01:48:50.673Z,3.17
2022-09-07T01:51:19.450Z,4.43
2022-09-07T01:53:50.007Z,4.10
2022-09-07T01:56:37.247Z,5.07
2022-09-07T01:59:06.212Z,3.47
2022-09-07T02:01:36.460Z,3.33
2022-09-07T02:04:07.525Z,4.80
2022-09-07T02:06:34.384Z,6.07
2022-09-07T02:09:04.825Z,4.43
2022-09-07T02:11:43.052Z,4.33
2022-09-07T02:14:26.663Z,3.33
2022-09-07T02:16:59.790Z,6.30
2022-09-07T02:19:28.914Z,5.23
2022-09-07T02:22:05.605Z,7.67
2022-09-07T02:24:43.220Z,3.87
2022-09-07T02:27:13.748Z,4.00
2022-09-07T02:29:41.093Z,4.67
2022-09-07T02:32:08.215Z,3.90
2022-09-07T02:34:35.231Z,6.63
2022-09-07T02:37:03.387Z,6.27
2022-09-07T02:39:30.805Z,5.03
2022-09-07T02:41:57.764Z,5.90
2022-09-07T02:44:26.334Z,4.87
2022-09-07T02:46:59.377Z,6.60
2022-09-07T02:49:34.794Z,5.10
2022-09-07T02:52:12.479Z,2.67
2022-09-07T02:54:42.578Z,4.10
2022-09-07T02:57:12.511Z,4.93
2022-09-07T02:59:46.230Z,5.57
2022-09-07T03:02:25.269Z,10.07
2022-09-07T03:05:01.348Z,7.63
2022-09-07T03:07:39.034Z,7.37
2022-09-07T03:10:09.874Z,7.20
2022-09-07T03:12:47.674Z,4.30
2022-09-07T03:15:19.382Z,5.70
2022-09-07T03:17:46.639Z,4.40
2022-09-07T03:20:13.910Z,4.63
2022-09-07T03:22:40.842Z,9.27
2022-09-07T03:25:08.021Z,4.33
2022-09-07T03:27:35.043Z,4.63
2022-09-07T03:30:02.311Z,9.47
2022-09-07T03:32:33.317Z,4.27
2022-09-07T03:35:00.798Z,3.63
2022-09-07T03:37:27.977Z,5.27
2022-09-07T03:39:55.173Z,5.20
2022-09-07T03:42:22.576Z,8.70
2022-09-07T03:44:50.080Z,5.23
2022-09-07T03:47:17.835Z,6.47
2022-09-07T03:49:44.818Z,6.37
2022-09-07T03:52:11.802Z,6.40
2022-09-07T03:54:39.788Z,6.33
2022-09-07T03:57:07.059Z,4.57
2022-09-07T03:59:34.282Z,10.23
2022-09-07T04:02:01.765Z,4.87
2022-09-07T04:04:28.922Z,5.10
2022-09-07T04:06:55.956Z,5.17
2022-09-07T04:09:22.847Z,5.60
2022-09-07T04:11:49.858Z,6.83
2022-09-07T04:14:16.809Z,4.37
2022-09-07T04:16:45.660Z,6.03
2022-09-07T04:19:12.678Z,6.67
2022-09-07T04:21:39.819Z,4.90
2022-09-07T04:24:07.026Z,7.70
2022-09-07T04:26:35.661Z,8.03
2022-09-07T04:29:03.086Z,9.97
2022-09-07T04:31:30.101Z,9.33
2022-09-07T04:33:57.040Z,7.10
2022-09-07T04:36:25.082Z,5.67
2022-09-07T04:38:59.883Z,14.00
2022-09-07T04:41:27.679Z,7.37
2022-09-07T04:43:55.804Z,6.03
2022-09-07T04:46:22.877Z,7.97
2022-09-07T04:48:51.311Z,15.03
2022-09-07T04:51:19.105Z,6.23
2022-09-07T04:53:47.996Z,11.47
2022-09-07T04:56:16.969Z,6.87
2022-09-07T04:58:44.618Z,7.63
2022-09-07T05:01:13.269Z,8.33
2022-09-07T05:03:40.551Z,9.07
2022-09-07T05:06:08.102Z,6.67
2022-09-07T05:08:42.317Z,6.03
2022-09-07T05:11:10.089Z,6.63
2022-09-07T05:13:37.197Z,12.43
2022-09-07T05:16:08.606Z,7.90
2022-09-07T05:18:35.701Z,7.70
2022-09-07T05:21:13.224Z,6.50
2022-09-07T05:23:40.793Z,8.40
2022-09-07T05:26:07.995Z,6.10
2022-09-07T05:28:35.846Z,10.80
2022-09-07T05:36:32.594Z,7.77
2022-09-07T05:38:59.627Z,7.23
2022-09-07T05:41:27.187Z,7.77
2022-09-07T05:46:42.728Z,10.40
2022-09-07T05:49:10.258Z,11.10
2022-09-07T05:51:37.565Z,9.97
2022-09-07T05:54:04.478Z,6.23
2022-09-07T05:56:33.722Z,5.60
2022-09-07T05:59:00.710Z,7.20
2022-09-07T06:01:27.678Z,7.33
2022-09-07T06:03:54.681Z,7.90
2022-09-07T06:06:21.576Z,12.53
2022-09-07T06:08:52.780Z,11.73
2022-09-07T06:11:21.873Z,6.93
2022-09-07T06:13:48.934Z,9.27
2022-09-07T06:16:16.794Z,7.20
2022-09-07T06:18:44.540Z,12.23
2022-09-07T06:21:12.849Z,8.33
2022-09-07T06:23:40.914Z,6.83
2022-09-07T06:26:08.317Z,10.97
2022-09-07T06:28:36.683Z,6.90
2022-09-07T06:31:07.997Z,12.40
2022-09-07T06:33:35.603Z,10.43
2022-09-07T06:36:06.981Z,8.53
2022-09-07T06:38:34.968Z,6.83
2022-09-07T06:43:49.625Z,12.07
2022-09-07T06:49:04.174Z,8.13
2022-09-07T06:51:32.316Z,11.97
2022-09-07T06:56:49.097Z,9.20
2022-09-07T06:59:15.940Z,9.20
2022-09-07T07:01:42.867Z,10.50
2022-09-07T07:04:10.504Z,8.80
2022-09-07T07:06:38.318Z,9.87
2022-09-07T07:09:05.978Z,11.20
2022-09-07T07:11:33.105Z,8.87
2022-09-07T07:14:00.315Z,12.73
2022-09-07T07:16:27.441Z,7.20
2022-09-07T07:18:57.503Z,11.80
2022-09-07T07:21:24.547Z,10.87
2022-09-07T07:23:52.405Z,7.53
2022-09-07T07:26:20.427Z,11.67
2022-09-07T07:29:04.152Z,10.37
2022-09-07T07:31:33.482Z,9.40
2022-09-07T07:34:00.356Z,9.37
2022-09-07T07:36:27.462Z,8.57
2022-09-07T07:38:59.484Z,8.13
2022-09-07T07:44:19.136Z,11.10
2022-09-07T07:46:52.117Z,7.70
2022-09-07T07:49:19.113Z,18.97
2022-09-07T07:54:38.518Z,10.90
2022-09-07T07:57:06.001Z,8.97
2022-09-07T07:59:32.994Z,13.07
2022-09-07T08:02:05.104Z,7.33
2022-09-07T08:04:33.632Z,13.70
2022-09-07T08:07:00.521Z,7.30
2022-09-07T08:09:27.356Z,12.53
2022-09-07T08:11:54.238Z,9.93
2022-09-07T08:14:22.066Z,12.13
2022-09-07T08:16:49.016Z,8.50
2022-09-07T08:19:15.851Z,8.73
2022-09-07T08:21:42.703Z,9.23
2022-09-07T08:24:09.625Z,13.50
2022-09-07T08:26:36.614Z,8.40
2022-09-07T08:29:03.611Z,13.07
2022-09-07T08:31:30.652Z,9.83
2022-09-07T08:33:57.498Z,15.67
2022-09-07T08:36:24.394Z,12.67
2022-09-07T08:38:51.316Z,10.00
2022-09-07T08:41:21.471Z,8.23
2022-09-07T08:44:20.947Z,10.57
2022-09-07T08:47:03.778Z,13.17
2022-09-07T08:49:44.475Z,9.23
2022-09-07T08:52:14.661Z,6.83
2022-09-07T08:54:44.203Z,7.97
2022-09-07T08:57:26.484Z,8.57
2022-09-07T08:59:59.553Z,9.37
2022-09-07T09:05:34.618Z,9.93
2022-09-07T09:06:11.375Z,6.27
2022-09-07T09:08:04.442Z,10.10
2022-09-07T09:10:44.510Z,9.53
2022-09-07T09:13:14.501Z,6.63
2022-09-07T09:15:47.808Z,10.17
2022-09-07T09:18:26.669Z,10.23
2022-09-07T09:20:57.273Z,11.70
2022-09-07T09:23:26.231Z,6.83
2022-09-07T09:25:57.065Z,7.67
2022-09-07T09:28:26.461Z,9.33
2022-09-07T09:30:56.059Z,4.87
2022-09-07T09:33:24.293Z,6.53
2022-09-07T09:35:52.547Z,6.97
2022-09-07T09:38:36.117Z,6.20
2022-09-07T09:41:09.824Z,8.73
2022-09-07T09:43:42.471Z,8.23
2022-09-07T09:46:18.804Z,12.53
2022-09-07T09:48:50.765Z,5.33
2022-09-07T09:54:17.210Z,6.90
2022-09-07T09:56:45.946Z,4.83
2022-09-07T10:05:33.390Z,11.23
2022-09-07T10:08:00.535Z,6.53
2022-09-07T10:10:28.068Z,6.40
2022-09-07T10:12:56.151Z,7.67
2022-09-07T10:15:27.564Z,6.93
2022-09-07T10:17:54.692Z,10.13
2022-09-07T10:20:35.494Z,8.70
2022-09-07T10:23:03.457Z,5.10
2022-09-07T10:25:37.598Z,8.50
2022-09-07T10:28:25.207Z,7.10
2022-09-07T10:31:14.827Z,5.70
2022-09-07T10:36:50.498Z,6.63
2022-09-07T10:39:25.812Z,8.57
2022-09-07T10:42:11.530Z,5.13
2022-09-07T10:44:57.248Z,6.27
2022-09-07T10:47:24.761Z,4.93
2022-09-07T10:53:00.443Z,8.40
2022-09-07T10:55:35.954Z,7.03
2022-09-07T10:58:12.934Z,11.60
2022-09-07T11:00:51.969Z,9.87
2022-09-07T11:03:27.227Z,4.50
2022-09-07T11:06:06.639Z,5.67
2022-09-07T11:09:15.720Z,6.13
2022-09-07T11:12:00.797Z,5.30
2022-09-07T11:14:15.107Z,5.67
2022-09-07T11:16:51.367Z,9.00
2022-09-07T11:19:38.085Z,5.90
2022-09-07T11:22:24.039Z,6.37
2022-09-07T11:27:52.520Z,6.20
2022-09-07T11:30:23.849Z,6.33
2022-09-07T11:33:10.990Z,7.50
2022-09-07T11:35:50.110Z,5.80
2022-09-07T11:38:23.793Z,5.87
2022-09-07T11:40:59.786Z,8.37
2022-09-07T11:43:37.275Z,8.43
2022-09-07T11:46:07.180Z,7.87
2022-09-07T11:48:44.930Z,8.27
2022-09-07T11:51:33.809Z,5.20
2022-09-07T11:54:04.696Z,8.13
2022-09-07T11:56:37.168Z,5.67
2022-09-07T11:59:04.046Z,8.30
2022-09-07T12:01:30.813Z,13.10
2022-09-07T12:04:15.335Z,8.73
2022-09-07T12:07:01.781Z,8.07
2022-09-07T12:09:47.238Z,13.97
2022-09-07T12:12:29.149Z,9.30
2022-09-07T12:15:14.541Z,8.00
2022-09-07T12:17:59.595Z,7.97
2022-09-07T12:20:29.255Z,8.37
2022-09-07T12:23:05.344Z,6.83
2022-09-07T12:25:33.710Z,11.23
2022-09-07T12:28:00.672Z,9.73
2022-09-07T12:30:28.326Z,7.77
2022-09-07T12:33:06.200Z,7.83
2022-09-07T12:35:33.653Z,8.27
2022-09-07T12:38:01.067Z,7.97
2022-09-07T12:40:32.225Z,8.30
2022-09-07T12:43:14.563Z,8.47
2022-09-07T12:45:42.250Z,7.47
2022-09-07T12:48:15.129Z,6.20
2022-09-07T12:50:59.051Z,7.17
2022-09-07T12:53:40.989Z,5.70
2022-09-07T12:56:20.335Z,8.97
2022-09-07T12:59:03.100Z,7.53
2022-09-07T13:01:30.704Z,6.10
2022-09-07T13:04:20.733Z,9.13
2022-09-07T13:07:06.891Z,8.13
2022-09-07T13:09:36.331Z,10.70
2022-09-07T13:15:28.485Z,9.10
2022-09-07T13:17:56.430Z,8.53
2022-09-07T13:20:30.739Z,6.97
2022-09-07T13:23:30.229Z,8.73
2022-09-07T13:25:59.129Z,6.73
2022-09-07T13:28:46.161Z,14.93
2022-09-07T13:31:19.721Z,7.00
2022-09-07T13:33:51.170Z,7.00
2022-09-07T13:36:22.237Z,5.57
2022-09-07T13:38:50.697Z,11.07
2022-09-07T13:41:19.262Z,16.20
2022-09-07T13:43:47.184Z,7.60
2022-09-07T13:46:28.366Z,12.53
2022-09-07T13:49:01.973Z,8.90
2022-09-07T13:51:31.943Z,6.47
2022-09-07T13:54:07.825Z,6.20
2022-09-07T13:56:43.570Z,10.83
2022-09-07T13:59:24.117Z,6.43
2022-09-07T14:01:51.627Z,5.23
2022-09-07T14:04:29.885Z,9.60
2022-09-07T14:07:03.002Z,6.80
2022-09-07T14:09:30.318Z,8.17
2022-09-07T14:11:57.427Z,7.27
2022-09-07T14:14:25.799Z,10.60
2022-09-07T14:16:52.673Z,9.37
2022-09-07T14:19:27.451Z,8.23
2022-09-07T14:22:14.763Z,6.97
2022-09-07T14:24:58.462Z,8.00
2022-09-07T14:27:28.259Z,7.20
2022-09-07T14:29:55.162Z,10.60
2022-09-07T14:32:23.940Z,7.27
2022-09-07T14:34:51.620Z,7.53
2022-09-07T14:37:21.224Z,8.13
2022-09-07T14:39:49.479Z,7.60
2022-09-07T14:42:24.076Z,5.57
2022-09-07T14:44:53.461Z,7.97
2022-09-07T14:47:34.155Z,6.97
2022-09-07T14:50:06.174Z,5.27
2022-09-07T14:52:42.298Z,7.20
2022-09-07T14:55:29.299Z,6.17
2022-09-07T14:58:08.360Z,8.83
2022-09-07T15:00:35.656Z,5.23
2022-09-07T15:03:22.844Z,8.63
2022-09-07T15:05:49.820Z,8.23
2022-09-07T15:08:20.690Z,6.47
2022-09-07T15:11:32.886Z,10.20
2022-09-07T15:13:35.892Z,9.40
2022-09-07T15:16:06.825Z,8.93
2022-09-07T15:18:43.087Z,8.10
2022-09-07T15:21:10.034Z,6.53
2022-09-07T15:23:36.940Z,8.70
2022-09-07T15:26:03.963Z,9.10
2022-09-07T15:34:13.931Z,7.63
2022-09-07T15:36:46.813Z,5.67
2022-09-07T15:39:17.053Z,7.67
2022-09-07T15:41:44.198Z,11.20
2022-09-07T15:44:11.286Z,6.67
2022-09-07T15:46:38.539Z,12.87
2022-09-07T15:49:05.853Z,8.07
2022-09-07T15:54:20.594Z,7.80
2022-09-07T15:59:35.512Z,7.60
2022-09-07T16:02:03.006Z,8.53
2022-09-07T16:04:30.094Z,9.33
2022-09-07T16:06:57.138Z,6.53
2022-09-07T16:09:24.023Z,6.90
2022-09-07T16:11:51.326Z,6.93
2022-09-07T16:14:18.728Z,7.60
2022-09-07T16:19:35.050Z,7.87
2022-09-07T16:22:02.339Z,10.73
2022-09-07T16:24:29.183Z,8.03
2022-09-07T16:26:56.238Z,6.13
2022-09-07T16:29:23.065Z,9.33
2022-09-07T16:34:37.164Z,13.70
2022-09-07T16:37:03.998Z,9.83
2022-09-07T16:39:32.076Z,8.90
2022-09-07T16:42:00.181Z,8.03
2022-09-07T16:44:27.338Z,9.37
2022-09-07T16:46:55.182Z,7.73
2022-09-07T16:49:22.832Z,7.13
2022-09-07T16:51:49.844Z,5.87
2022-09-07T16:54:17.558Z,8.87
2022-09-07T16:56:44.482Z,7.37
2022-09-07T16:59:16.151Z,8.53
2022-09-07T17:01:43.246Z,15.67
2022-09-07T17:04:11.415Z,10.37
2022-09-07T17:06:39.672Z,11.17
2022-09-07T17:09:06.766Z,10.00
2022-09-07T17:11:34.745Z,10.80
2022-09-07T17:14:01.846Z,7.97
2022-09-07T17:16:33.646Z,12.47
2022-09-07T17:21:53.907Z,12.63
2022-09-07T17:24:21.158Z,10.53
2022-09-07T17:26:48.023Z,13.23
2022-09-07T17:29:14.989Z,10.90
2022-09-07T17:34:30.146Z,19.17
2022-09-07T17:36:57.277Z,23.07
2022-09-07T17:39:24.128Z,20.00
2022-09-07T17:41:54.758Z,14.67
2022-09-07T17:44:23.578Z,25.73
2022-09-07T17:46:50.874Z,35.93
2022-09-07T17:49:18.001Z,28.87
2022-09-07T17:51:45.455Z,45.40
2022-09-07T17:54:14.948Z,68.23
2022-09-07T17:56:42.108Z,67.60
2022-09-07T18:01:56.719Z,48.57
2022-09-07T18:04:24.195Z,58.13
2022-09-07T18:06:51.251Z,43.17
2022-09-07T18:09:19.908Z,38.23
2022-09-07T18:11:48.503Z,43.13
2022-09-07T18:14:15.738Z,55.83
2022-09-07T18:16:43.845Z,63.67
2022-09-07T18:19:11.372Z,73.00
2022-09-07T18:21:39.315Z,41.73
2022-09-07T18:24:19.060Z,24.43
2022-09-07T18:26:50.138Z,29.13
2022-09-07T18:29:31.315Z,23.00
2022-09-07T18:32:00.791Z,15.93
2022-09-07T18:34:28.926Z,11.50
2022-09-07T18:36:57.370Z,14.87
2022-09-07T18:39:24.935Z,15.23
2022-09-07T18:41:53.233Z,15.47
2022-09-07T18:47:08.900Z,17.67
2022-09-07T18:49:35.699Z,43.80
2022-09-07T18:54:50.485Z,18.00
2022-09-07T18:57:17.413Z,23.70
2022-09-07T18:59:44.430Z,11.97
2022-09-07T19:02:11.394Z,11.27
2022-09-07T19:07:29.643Z,15.03
2022-09-07T19:09:57.150Z,10.30
2022-09-07T19:12:24.636Z,8.40
2022-09-07T19:14:51.858Z,9.87
2022-09-07T19:17:19.410Z,15.13
2022-09-07T19:19:46.350Z,12.63
2022-09-07T19:22:13.589Z,16.97
2022-09-07T19:24:40.535Z,15.97
2022-09-07T19:27:07.457Z,15.23
2022-09-07T19:29:34.946Z,12.37
2022-09-07T19:32:04.728Z,26.87
2022-09-07T19:34:35.586Z,26.80
2022-09-07T19:37:02.991Z,19.80
2022-09-07T19:39:30.094Z,17.07
2022-09-07T19:41:57.010Z,14.10
2022-09-07T19:44:23.891Z,12.63
2022-09-07T19:46:50.977Z,13.30
2022-09-07T19:49:18.475Z,13.43
2022-09-07T19:51:45.430Z,13.17
2022-09-07T19:54:12.822Z,9.63
2022-09-07T19:56:40.532Z,14.30
2022-09-07T19:59:07.419Z,14.60
2022-09-07T20:01:35.323Z,15.23
2022-09-07T20:04:03.772Z,11.90
2022-09-07T20:06:32.978Z,12.50
2022-09-07T20:09:01.442Z,13.50
2022-09-07T20:11:31.708Z,12.27
2022-09-07T20:13:59.079Z,17.00
2022-09-07T20:16:26.114Z,13.23
2022-09-07T20:18:53.138Z,20.10
2022-09-07T20:21:22.041Z,17.53
2022-09-07T20:23:48.962Z,15.43
2022-09-07T20:26:17.404Z,16.43
2022-09-07T20:28:44.690Z,12.27
2022-09-07T20:31:13.721Z,13.67
2022-09-07T20:33:41.431Z,16.90
2022-09-07T20:36:11.548Z,15.00
2022-09-07T20:38:42.529Z,14.93
2022-09-07T20:41:13.057Z,15.60
2022-09-07T20:43:40.047Z,15.27
2022-09-07T20:46:09.789Z,14.00
2022-09-07T20:48:39.842Z,12.37
2022-09-07T20:51:09.794Z,14.03
2022-09-07T20:53:38.611Z,16.57
2022-09-07T20:56:07.518Z,16.43
2022-09-07T20:58:34.751Z,12.30
2022-09-07T21:01:02.189Z,16.37
2022-09-07T21:03:29.303Z,13.50
2022-09-07T21:05:56.486Z,19.37
2022-09-07T21:08:23.389Z,14.33
2022-09-07T21:10:50.243Z,12.97
2022-09-07T21:13:17.160Z,19.63
2022-09-07T21:15:45.306Z,14.23
2022-09-07T21:18:16.548Z,17.27
2022-09-07T21:20:56.939Z,13.43
2022-09-07T21:23:32.101Z,19.90
2022-09-07T21:25:59.004Z,15.97
2022-09-07T21:28:26.460Z,15.43
2022-09-07T21:31:00.591Z,18.47
2022-09-07T21:33:28.525Z,16.47
2022-09-07T21:35:55.566Z,17.90
2022-09-07T21:38:23.024Z,15.97
2022-09-07T21:40:49.843Z,16.40
2022-09-07T21:43:17.395Z,21.33
2022-09-07T21:45:44.203Z,17.20
2022-09-07T21:48:11.126Z,14.60
2022-09-07T21:50:38.032Z,20.50
2022-09-07T21:53:04.935Z,19.17
2022-09-07T21:55:31.947Z,18.13
2022-09-07T21:57:58.885Z,21.10
2022-09-07T22:00:25.758Z,16.97
2022-09-07T22:02:52.744Z,20.93
2022-09-07T22:05:19.602Z,19.13
2022-09-07T22:07:46.595Z,17.13
2022-09-07T22:10:14.131Z,18.13
2022-09-07T22:12:41.123Z,18.87
2022-09-07T22:15:08.128Z,16.27
2022-09-07T22:17:35.122Z,25.87
2022-09-07T22:20:02.013Z,19.00
2022-09-07T22:22:29.036Z,19.57
2022-09-07T22:24:55.819Z,18.13
2022-09-07T22:27:22.722Z,18.70
2022-09-07T22:29:49.573Z,21.87
2022-09-07T22:32:16.573Z,21.20
2022-09-07T22:34:43.411Z,18.40
2022-09-07T22:37:10.621Z,21.50
2022-09-07T22:39:37.513Z,25.43
2022-09-07T22:42:04.625Z,23.00
2022-09-07T22:44:31.541Z,23.60
2022-09-07T22:46:58.615Z,23.47
2022-09-07T22:49:25.416Z,21.10
2022-09-07T22:51:52.414Z,22.27
2022-09-07T22:54:19.260Z,18.50
2022-09-07T22:56:46.173Z,18.87
2022-09-07T22:59:13.352Z,21.73
2022-09-07T23:01:40.957Z,28.30
2022-09-07T23:04:08.042Z,21.10
2022-09-07T23:06:36.102Z,22.33
2022-09-07T23:09:04.785Z,25.03
2022-09-07T23:11:31.715Z,25.93
2022-09-07T23:13:59.695Z,18.60
2022-09-07T23:16:27.991Z,22.57
2022-09-07T23:18:55.645Z,26.57
2022-09-07T23:21:22.602Z,20.00
2022-09-07T23:23:50.741Z,25.03
2022-09-07T23:26:17.725Z,22.67
2022-09-07T23:28:44.499Z,32.23
2022-09-07T23:31:11.538Z,27.37
2022-09-07T23:33:38.535Z,28.00
2022-09-07T23:36:06.191Z,25.10
2022-09-07T23:38:33.531Z,27.37
2022-09-07T23:41:00.447Z,26.27
2022-09-07T23:43:28.906Z,30.40
2022-09-07T23:45:56.446Z,27.93
2022-09-07T23:48:23.716Z,25.63
2022-09-07T23:50:50.579Z,21.13
2022-09-07T23:53:18.276Z,24.77
2022-09-07T23:55:46.759Z,23.67
2022-09-07T23:58:13.625Z,24.00
